Time;durP1;ratioP1;P1;durP2;ratioP2;P2;SDS_P1;SDS_P2;PMS_P1;PMS_P2;Temp;Humidity;BMP_temperature;BMP_pressure;BME280_temperature;BME280_humidity;BME280_pressure;Samples;Min_cycle;Max_cycle;Signal;HPM_P1;HPM_P2
2024/01/07 00:01:02;;;;;;;90.47;53.00;;;;;;;4.18;100.00;98127.38;5059920;28;20021;-70
2024/01/07 00:03:27;;;;;;;90.68;54.15;;;;;;;4.29;100.00;98142.53;5054915;28;20029;-70
2024/01/07 00:05:53;;;;;;;93.30;51.90;;;;;;;4.24;100.00;98134.41;5073795;28;20024;-70
2024/01/07 00:08:18;;;;;;;92.50;53.40;;;;;;;4.37;100.00;98143.66;5070044;28;20059;-70
2024/01/07 00:10:44;;;;;;;94.25;52.03;;;;;;;4.30;100.00;98166.28;5053588;28;20060;-70
2024/01/07 00:13:09;;;;;;;93.60;51.75;;;;;;;4.37;100.00;98151.16;5053203;28;20017;-72
2024/01/07 00:15:36;;;;;;;87.13;49.50;;;;;;;4.37;100.00;98131.78;5052726;28;20048;-72
2024/01/07 00:18:01;;;;;;;87.88;49.38;;;;;;;4.47;100.00;98139.75;5035767;28;20036;-73
2024/01/07 00:20:27;;;;;;;84.05;51.53;;;;;;;4.58;100.00;98127.19;5064404;28;20036;-73
2024/01/07 00:22:52;;;;;;;87.22;49.83;;;;;;;4.73;100.00;98127.81;5053651;28;20094;-73
2024/01/07 00:25:18;;;;;;;85.88;49.50;;;;;;;4.61;100.00;98109.09;5052722;28;20032;-73
2024/01/07 00:27:43;;;;;;;90.63;51.17;;;;;;;4.53;100.00;98099.66;5053571;28;20036;-73
2024/01/07 00:30:10;;;;;;;86.70;50.05;;;;;;;4.61;100.00;98104.38;5054374;28;20037;-73
2024/01/07 00:32:35;;;;;;;93.00;50.60;;;;;;;4.66;100.00;98085.97;5057371;28;20035;-73
2024/01/07 00:35:01;;;;;;;93.75;54.15;;;;;;;4.70;100.00;98089.69;5052631;28;20465;-72
2024/01/07 00:37:26;;;;;;;90.63;53.00;;;;;;;4.87;100.00;98070.25;5053332;28;20476;-73
2024/01/07 00:39:52;;;;;;;84.35;50.53;;;;;;;4.86;100.00;98038.16;5052725;28;20017;-73
2024/01/07 00:42:17;;;;;;;82.43;47.78;;;;;;;4.88;100.00;98022.00;5035372;28;20025;-73
2024/01/07 00:44:42;;;;;;;91.75;50.97;;;;;;;4.71;100.00;98058.91;5052573;28;20075;-73
2024/01/07 00:47:08;;;;;;;87.20;50.00;;;;;;;4.84;100.00;98062.63;5052721;28;20036;-73
2024/01/07 00:49:33;;;;;;;86.25;49.65;;;;;;;4.74;100.00;98055.47;5052260;28;20028;-73
2024/01/07 00:51:59;;;;;;;97.32;52.42;;;;;;;4.91;100.00;98040.72;5052980;28;20024;-73
2024/01/07 00:54:24;;;;;;;81.07;48.20;;;;;;;4.96;100.00;98052.78;5063066;28;20031;-72
2024/01/07 00:56:50;;;;;;;81.63;47.53;;;;;;;4.92;100.00;97998.00;5072851;28;20021;-73
2024/01/07 00:59:16;;;;;;;83.38;49.15;;;;;;;4.95;100.00;97979.91;5071887;28;20035;-73
2024/01/07 01:01:41;;;;;;;90.40;51.65;;;;;;;4.96;100.00;97961.34;5063877;28;20147;-72
2024/01/07 01:04:07;;;;;;;98.63;49.47;;;;;;;4.95;100.00;97957.75;5035244;28;20021;-73
2024/01/07 01:06:32;;;;;;;83.95;49.13;;;;;;;4.79;100.00;97974.13;5052839;28;20017;-73
2024/01/07 01:08:58;;;;;;;88.50;50.05;;;;;;;4.72;100.00;97976.63;5051791;28;20025;-73
2024/01/07 01:11:23;;;;;;;89.50;50.33;;;;;;;4.96;100.00;97958.56;5052057;28;20151;-73
2024/01/07 01:13:49;;;;;;;88.72;49.92;;;;;;;5.06;100.00;97953.44;5050497;28;20051;-72
2024/01/07 01:16:14;;;;;;;88.47;48.58;;;;;;;5.22;100.00;97936.22;5052540;28;20035;-73
2024/01/07 01:18:40;;;;;;;76.38;46.67;;;;;;;5.32;100.00;97927.50;5051043;28;20032;-73
2024/01/07 01:21:05;;;;;;;82.53;48.08;;;;;;;5.19;100.00;97915.53;5052472;28;20021;-73
2024/01/07 01:23:31;;;;;;;85.45;48.28;;;;;;;5.24;100.00;97927.56;5044957;28;20036;-69
2024/01/07 01:25:56;;;;;;;79.97;46.03;;;;;;;5.21;100.00;97906.88;5072398;28;20201;-69
2024/01/07 01:28:21;;;;;;;75.20;45.53;;;;;;;5.24;100.00;97892.34;5051617;28;20024;-69
2024/01/07 01:30:47;;;;;;;80.05;48.58;;;;;;;5.29;100.00;97888.53;5034320;28;20033;-69
2024/01/07 01:33:12;;;;;;;76.20;44.42;;;;;;;5.28;100.00;97898.03;5051393;28;20032;-69
2024/01/07 01:35:38;;;;;;;82.70;46.78;;;;;;;5.31;100.00;97914.00;5052233;28;20025;-69
2024/01/07 01:38:03;;;;;;;77.90;45.58;;;;;;;5.36;100.00;97877.72;5051627;28;20029;-70
2024/01/07 01:40:29;;;;;;;82.95;48.67;;;;;;;5.02;100.00;97827.78;5052261;28;20021;-69
2024/01/07 01:42:54;;;;;;;86.53;49.58;;;;;;;4.81;100.00;97840.81;5052114;28;20032;-69
2024/01/07 01:45:20;;;;;;;90.05;50.15;;;;;;;4.85;100.00;97864.75;5059104;28;20094;-69
2024/01/07 01:47:47;;;;;;;80.80;49.28;;;;;;;4.80;100.00;97848.31;5071922;28;20505;-69
2024/01/07 01:50:13;;;;;;;77.93;48.45;;;;;;;4.82;100.00;97832.16;5053713;28;20025;-69
2024/01/07 01:52:39;;;;;;;84.63;49.85;;;;;;;4.91;100.00;97813.50;5051964;28;20035;-69
2024/01/07 01:55:04;;;;;;;84.30;49.70;;;;;;;4.98;100.00;97804.66;5065977;28;20039;-70
2024/01/07 01:57:35;;;;;;;82.28;47.70;;;;;;;5.01;100.00;97811.50;5052941;28;20444;-69
2024/01/07 02:00:05;;;;;;;79.03;51.10;;;;;;;5.09;100.00;97831.97;5037187;28;20033;-69
2024/01/07 02:02:33;;;;;;;83.15;50.03;;;;;;;4.91;100.00;97857.84;5051621;28;20036;-69
2024/01/07 02:05:00;;;;;;;94.38;55.53;;;;;;;4.66;100.00;97829.19;5050923;28;20394;-70
2024/01/07 02:07:27;;;;;;;91.13;53.55;;;;;;;4.57;100.00;97818.16;5050325;28;20108;-69
2024/01/07 02:09:53;;;;;;;85.90;52.97;;;;;;;4.69;100.00;97842.38;5051085;28;20067;-69
2024/01/07 02:12:19;;;;;;;93.22;52.63;;;;;;;4.79;100.00;97832.84;5051556;28;20481;-69
2024/01/07 02:14:44;;;;;;;90.65;51.47;;;;;;;4.91;100.00;97807.19;5043664;28;20075;-69
2024/01/07 02:17:10;;;;;;;92.03;51.47;;;;;;;5.05;100.00;97837.38;5051413;28;20029;-70
2024/01/07 02:19:36;;;;;;;83.55;48.60;;;;;;;4.83;100.00;97835.75;5040748;28;20112;-69
2024/01/07 02:22:01;;;;;;;88.00;49.83;;;;;;;4.72;100.00;97838.13;5052011;28;20025;-69
2024/01/07 02:24:27;;;;;;;92.00;53.63;;;;;;;4.46;100.00;97819.69;5048536;28;20166;-69
2024/01/07 02:26:52;;;;;;;94.18;52.30;;;;;;;4.06;100.00;97802.31;5051322;28;20033;-69
2024/01/07 02:29:18;;;;;;;91.80;51.80;;;;;;;4.32;100.00;97792.25;5050599;28;20397;-69
2024/01/07 02:31:43;;;;;;;89.43;49.78;;;;;;;4.33;100.00;97774.50;5051215;28;20029;-69
2024/01/07 02:34:10;;;;;;;90.97;50.53;;;;;;;4.37;100.00;97767.13;5051288;28;20035;-72
2024/01/07 02:36:36;;;;;;;87.88;49.08;;;;;;;4.14;100.00;97759.13;5034444;28;20029;-72
2024/01/07 02:39:01;;;;;;;92.03;51.40;;;;;;;4.24;100.00;97743.28;5051228;28;20401;-72
2024/01/07 02:41:27;;;;;;;90.22;49.22;;;;;;;4.07;100.00;97743.06;5033110;28;20432;-72
2024/01/07 02:43:52;;;;;;;87.60;50.08;;;;;;;3.98;100.00;97731.25;5050490;28;20056;-72
2024/01/07 02:46:19;;;;;;;90.13;51.60;;;;;;;4.05;100.00;97758.38;5047311;28;20048;-72
2024/01/07 02:48:44;;;;;;;96.05;52.42;;;;;;;4.10;100.00;97757.34;5071134;28;20034;-72
2024/01/07 02:51:10;;;;;;;94.22;54.42;;;;;;;4.08;100.00;97744.66;5070908;28;20021;-72
2024/01/07 02:53:35;;;;;;;95.03;52.72;;;;;;;4.12;100.00;97752.31;5065413;28;20021;-72
2024/01/07 02:56:01;;;;;;;93.43;52.90;;;;;;;4.17;100.00;97749.34;5060440;28;20029;-72
2024/01/07 02:58:26;;;;;;;96.10;54.65;;;;;;;4.17;100.00;97746.59;5050985;28;20178;-72
2024/01/07 03:00:52;;;;;;;101.20;54.85;;;;;;;4.24;100.00;97770.97;5032740;28;20024;-72
2024/01/07 03:03:17;;;;;;;100.28;54.75;;;;;;;4.34;100.00;97778.88;5050964;28;20099;-72
2024/01/07 03:05:43;;;;;;;104.43;55.85;;;;;;;4.34;100.00;97790.78;5068914;28;20024;-72
2024/01/07 03:08:08;;;;;;;110.47;54.75;;;;;;;4.44;100.00;97802.59;5067109;28;20021;-72
2024/01/07 03:10:34;;;;;;;90.30;50.35;;;;;;;4.54;100.00;97790.34;5050685;28;20045;-71
2024/01/07 03:13:01;;;;;;;96.68;50.45;;;;;;;4.56;100.00;97788.03;5050687;28;20020;-71
2024/01/07 03:15:26;;;;;;;101.47;53.42;;;;;;;4.61;100.00;97805.28;5046367;28;20516;-71
2024/01/07 03:17:52;;;;;;;94.70;52.92;;;;;;;4.75;100.00;97804.19;5032731;28;20025;-71
2024/01/07 03:20:17;;;;;;;104.25;52.72;;;;;;;4.67;100.00;97780.13;5049979;28;20028;-71
2024/01/07 03:22:43;;;;;;;97.47;52.28;;;;;;;4.67;100.00;97794.81;5053105;28;20032;-71
2024/01/07 03:25:08;;;;;;;93.50;52.17;;;;;;;4.83;100.00;97783.94;5070733;28;20021;-70
2024/01/07 03:27:34;;;;;;;96.15;53.10;;;;;;;4.78;100.00;97767.50;5052663;28;20025;-70
2024/01/07 03:29:59;;;;;;;89.28;49.60;;;;;;;4.91;100.00;97773.94;5070668;28;20021;-70
2024/01/07 03:32:25;;;;;;;103.80;56.30;;;;;;;5.02;100.00;97735.53;5069912;28;20033;-70
2024/01/07 03:34:50;;;;;;;96.32;50.00;;;;;;;5.05;100.00;97734.84;5066503;28;20028;-70
2024/01/07 03:37:17;;;;;;;89.45;50.08;;;;;;;5.06;100.00;97748.34;5035632;28;20017;-71
2024/01/07 03:39:42;;;;;;;88.22;51.35;;;;;;;5.19;100.00;97740.91;5054337;28;20025;-70
2024/01/07 03:42:11;;;;;;;99.72;52.45;;;;;;;4.88;100.00;97746.88;5054319;28;20413;-70
2024/01/07 03:44:38;;;;;;;97.20;52.33;;;;;;;4.84;100.00;97746.78;5054691;28;20546;-68
2024/01/07 03:47:04;;;;;;;86.88;48.10;;;;;;;4.89;100.00;97727.16;5069895;28;20111;-68
2024/01/07 03:49:29;;;;;;;99.60;49.85;;;;;;;5.03;100.00;97720.50;5094444;28;20103;-69
2024/01/07 03:51:55;;;;;;;95.30;47.10;;;;;;;5.05;100.00;97709.88;5087857;28;20505;-68
2024/01/07 03:54:20;;;;;;;94.13;45.50;;;;;;;5.18;100.00;97686.59;5056033;28;20458;-69
2024/01/07 03:56:46;;;;;;;83.55;43.55;;;;;;;5.26;100.00;97656.38;5074006;28;20020;-68
2024/01/07 03:59:11;;;;;;;79.57;42.70;;;;;;;5.17;100.00;97657.25;5074210;28;20028;-68
2024/01/07 04:01:36;;;;;;;87.05;45.80;;;;;;;5.20;100.00;97664.91;5073631;28;20024;-69
2024/01/07 04:04:02;;;;;;;79.55;42.42;;;;;;;5.26;100.00;97670.22;5073900;28;20024;-69
2024/01/07 04:06:28;;;;;;;76.15;42.35;;;;;;;5.20;100.00;97645.50;5073608;28;20024;-68
2024/01/07 04:08:54;;;;;;;76.25;40.60;;;;;;;5.16;100.00;97630.69;5054979;28;20024;-69
2024/01/07 04:11:19;;;;;;;80.25;42.97;;;;;;;5.28;100.00;97623.56;5055754;28;20055;-68
2024/01/07 04:13:45;;;;;;;77.07;42.83;;;;;;;5.28;100.00;97593.06;5073747;28;20017;-69
2024/01/07 04:16:18;;;;;;;75.20;40.22;;;;;;;5.23;100.00;97607.16;5055879;28;20529;-69
2024/01/07 04:18:44;;;;;;;73.15;42.33;;;;;;;5.28;100.00;97618.00;5061283;28;20029;-69
2024/01/07 04:21:10;;;;;;;70.03;39.85;;;;;;;5.29;100.00;97645.41;5053786;28;20425;-68
2024/01/07 04:23:35;;;;;;;72.63;39.85;;;;;;;5.52;100.00;97672.69;5053806;28;20021;-68
2024/01/07 04:26:01;;;;;;;80.50;43.03;;;;;;;5.58;100.00;97689.91;5044528;28;20033;-68
2024/01/07 04:28:26;;;;;;;94.75;51.58;;;;;;;5.36;100.00;97672.56;5052048;28;20029;-69
2024/01/07 04:30:51;;;;;;;84.60;46.00;;;;;;;5.54;100.00;97666.78;5053443;28;20044;-68
2024/01/07 04:33:17;;;;;;;66.60;38.40;;;;;;;5.48;100.00;97661.47;5035504;28;20051;-68
2024/01/07 04:35:42;;;;;;;69.03;38.95;;;;;;;5.56;100.00;97648.66;5053414;28;20047;-68
2024/01/07 04:38:08;;;;;;;84.72;45.10;;;;;;;5.72;100.00;97640.44;5053397;28;20025;-68
2024/01/07 04:40:34;;;;;;;76.72;44.10;;;;;;;5.85;100.00;97637.66;5035484;28;20021;-68
2024/01/07 04:42:59;;;;;;;73.57;42.92;;;;;;;5.89;100.00;97627.47;5065034;28;20029;-68
2024/01/07 04:45:25;;;;;;;76.07;44.35;;;;;;;5.81;100.00;97620.91;5073272;28;20063;-68
2024/01/07 04:47:51;;;;;;;80.28;44.40;;;;;;;5.80;100.00;97635.13;5054580;28;20017;-68
2024/01/07 04:50:19;;;;;;;83.38;48.40;;;;;;;5.62;100.00;97636.19;5055220;28;20497;-68
2024/01/07 04:52:48;;;;;;;73.97;40.33;;;;;;;5.45;100.00;97606.72;5073067;28;20085;-72
2024/01/07 04:55:13;;;;;;;78.88;42.00;;;;;;;5.38;100.00;97625.09;5057652;28;20086;-72
2024/01/07 04:57:39;;;;;;;79.65;41.50;;;;;;;5.18;100.00;97631.16;5052965;28;20025;-72
2024/01/07 05:00:05;;;;;;;73.30;41.63;;;;;;;5.23;100.00;97638.44;5065743;28;20017;-72
2024/01/07 05:02:30;;;;;;;79.13;43.00;;;;;;;5.20;100.00;97625.28;5059538;28;20036;-72
2024/01/07 05:04:56;;;;;;;77.43;44.33;;;;;;;5.22;100.00;97619.41;5035087;28;20025;-72
2024/01/07 05:07:21;;;;;;;77.22;42.08;;;;;;;5.34;100.00;97619.41;5060480;28;20025;-72
2024/01/07 05:09:46;;;;;;;74.75;40.53;;;;;;;5.44;100.00;97615.38;5054467;28;20044;-72
2024/01/07 05:12:12;;;;;;;74.80;38.65;;;;;;;5.61;100.00;97600.47;5054733;28;20060;-72
2024/01/07 05:14:37;;;;;;;71.28;39.08;;;;;;;5.70;100.00;97580.91;5068609;28;20029;-72
2024/01/07 05:17:03;;;;;;;54.67;32.88;;;;;;;5.86;100.00;97594.88;5052997;28;20083;-72
2024/01/07 05:19:29;;;;;;;63.72;34.22;;;;;;;6.12;100.00;97602.03;5055552;28;20021;-72
2024/01/07 05:21:56;;;;;;;61.65;34.50;;;;;;;6.26;100.00;97607.19;5052609;28;20079;-72
2024/01/07 05:24:21;;;;;;;56.58;30.90;;;;;;;6.26;100.00;97646.06;5056449;28;20052;-72
2024/01/07 05:26:47;;;;;;;88.07;47.85;;;;;;;5.24;100.00;97645.59;5070041;28;20449;-72
2024/01/07 05:29:13;;;;;;;83.97;46.47;;;;;;;4.95;100.00;97641.88;5070145;28;20570;-72
2024/01/07 05:31:39;;;;;;;87.53;47.70;;;;;;;4.97;100.00;97655.38;5064559;28;20029;-72
2024/01/07 05:34:05;;;;;;;89.70;46.75;;;;;;;4.73;100.00;97651.38;5034254;28;20071;-72
2024/01/07 05:36:30;;;;;;;90.28;49.60;;;;;;;4.53;100.00;97664.13;5051213;28;20512;-72
2024/01/07 05:38:56;;;;;;;97.63;49.40;;;;;;;4.54;100.00;97655.44;5062361;28;20421;-72
2024/01/07 05:41:22;;;;;;;94.72;51.88;;;;;;;4.54;100.00;97649.91;5052242;28;20047;-72
2024/01/07 05:43:47;;;;;;;91.07;50.25;;;;;;;4.82;100.00;97649.31;5055216;28;20032;-73
2024/01/07 05:46:13;;;;;;;92.78;50.30;;;;;;;4.68;100.00;97640.50;5052211;28;20398;-72
2024/01/07 05:48:46;;;;;;;90.97;51.33;;;;;;;4.73;100.00;97643.06;5042535;28;20036;-73
2024/01/07 05:51:12;;;;;;;83.95;48.75;;;;;;;4.95;100.00;97632.72;5052045;28;20387;-72
2024/01/07 05:53:39;;;;;;;84.00;47.60;;;;;;;5.00;100.00;97630.56;5037016;28;20477;-71
2024/01/07 05:56:05;;;;;;;87.90;48.58;;;;;;;5.16;100.00;97629.91;5042514;28;20382;-73
2024/01/07 05:58:31;;;;;;;82.60;46.63;;;;;;;5.17;100.00;97637.06;5064983;28;20071;-73
2024/01/07 06:00:56;;;;;;;77.13;41.28;;;;;;;4.86;100.00;97636.41;5052161;28;20021;-74
2024/01/07 06:03:22;;;;;;;73.85;40.40;;;;;;;4.47;100.00;97655.22;5034224;28;20070;-72
2024/01/07 06:05:48;;;;;;;96.35;54.92;;;;;;;4.59;100.00;97646.94;5051348;28;20039;-72
2024/01/07 06:08:13;;;;;;;80.03;44.85;;;;;;;4.43;100.00;97654.25;5033555;28;20021;-72
2024/01/07 06:10:40;;;;;;;81.68;44.58;;;;;;;4.73;100.00;97656.94;5043113;28;20040;-72
2024/01/07 06:13:05;;;;;;;81.63;49.58;;;;;;;4.55;100.00;97648.75;5071679;28;20021;-72
2024/01/07 06:15:31;;;;;;;96.15;50.53;;;;;;;4.34;100.00;97641.31;5071479;28;20032;-72
2024/01/07 06:17:56;;;;;;;101.20;54.97;;;;;;;4.44;100.00;97650.31;5053659;28;20517;-71
2024/01/07 06:20:23;;;;;;;163.40;90.28;;;;;;;4.66;100.00;97649.16;5070943;28;20028;-72
2024/01/07 06:22:48;;;;;;;160.90;88.53;;;;;;;4.59;100.00;97652.50;5069182;28;20461;-71
2024/01/07 06:25:14;;;;;;;145.77;79.43;;;;;;;4.42;100.00;97652.63;5069866;28;20020;-72
2024/01/07 06:27:39;;;;;;;116.68;67.43;;;;;;;4.68;100.00;97648.81;5071260;28;20054;-72
2024/01/07 06:30:06;;;;;;;109.22;58.78;;;;;;;4.64;100.00;97634.81;5070114;28;20025;-72
2024/01/07 06:32:32;;;;;;;101.40;58.63;;;;;;;4.64;100.00;97619.03;5070556;28;20055;-72
2024/01/07 06:35:00;;;;;;;108.18;64.82;;;;;;;4.91;100.00;97608.47;5057576;28;20043;-72
2024/01/07 06:37:28;;;;;;;117.15;67.15;;;;;;;5.16;100.00;97605.75;5070689;28;20065;-72
2024/01/07 06:39:54;;;;;;;148.98;83.00;;;;;;;5.16;100.00;97602.97;5055805;28;20025;-72
2024/01/07 06:42:19;;;;;;;161.50;88.10;;;;;;;5.41;100.00;97608.53;5057775;28;20471;-72
2024/01/07 06:44:45;;;;;;;160.88;89.22;;;;;;;5.48;100.00;97619.06;5050971;28;20082;-72
2024/01/07 06:47:10;;;;;;;133.55;80.32;;;;;;;4.90;100.00;97620.72;5051039;28;20086;-72
2024/01/07 06:49:36;;;;;;;124.38;74.18;;;;;;;4.96;100.00;97624.09;5050903;28;20028;-71
2024/01/07 06:52:01;;;;;;;120.78;68.53;;;;;;;5.15;100.00;97633.84;5032470;28;20033;-72
2024/01/07 06:54:27;;;;;;;115.25;63.47;;;;;;;4.92;100.00;97639.78;5061627;28;20039;-72
2024/01/07 06:56:52;;;;;;;121.80;68.05;;;;;;;5.06;100.00;97645.81;5051105;28;20089;-73
2024/01/07 06:59:18;;;;;;;116.22;71.97;;;;;;;5.46;100.00;97649.94;5050931;28;20038;-73
2024/01/07 07:01:43;;;;;;;105.38;60.85;;;;;;;5.36;100.00;97647.59;5050943;28;20028;-73
2024/01/07 07:04:09;;;;;;;110.25;59.15;;;;;;;5.08;100.00;97656.56;5048195;28;20028;-73
2024/01/07 07:06:34;;;;;;;109.22;66.03;;;;;;;5.32;100.00;97650.25;5068998;28;20027;-72
2024/01/07 07:09:02;;;;;;;100.10;59.33;;;;;;;5.80;100.00;97649.00;5035788;28;20075;-71
2024/01/07 07:11:28;;;;;;;84.75;49.40;;;;;;;5.91;100.00;97652.91;5051174;28;20444;-72
2024/01/07 07:13:53;;;;;;;78.38;47.17;;;;;;;5.85;100.00;97632.13;5070891;28;20028;-72
2024/01/07 07:16:19;;;;;;;80.75;48.85;;;;;;;6.00;100.00;97642.50;5055292;28;20043;-72
2024/01/07 07:18:44;;;;;;;79.80;49.30;;;;;;;6.19;100.00;97643.88;5054943;28;20029;-73
2024/01/07 07:21:10;;;;;;;87.40;49.60;;;;;;;6.26;100.00;97641.31;5054735;28;20386;-72
2024/01/07 07:23:35;;;;;;;90.22;49.17;;;;;;;6.17;100.00;97643.44;5054835;28;20028;-72
2024/01/07 07:26:01;;;;;;;81.15;45.40;;;;;;;6.26;100.00;97657.97;5075739;28;20111;-72
2024/01/07 07:28:26;;;;;;;70.15;42.00;;;;;;;6.23;100.00;97652.34;5047050;28;20051;-72
2024/01/07 07:30:53;;;;;;;71.15;40.20;;;;;;;5.86;100.00;97655.94;5081094;28;20028;-72
2024/01/07 07:33:18;;;;;;;72.22;39.53;;;;;;;5.51;100.00;97656.38;5048189;28;20027;-71
2024/01/07 07:35:44;;;;;;;64.65;39.38;;;;;;;5.44;100.00;97652.25;5065695;28;20036;-71
2024/01/07 07:38:09;;;;;;;73.75;42.03;;;;;;;5.45;100.00;97647.47;5059403;28;20516;-73
2024/01/07 07:40:35;;;;;;;71.57;41.65;;;;;;;5.78;100.00;97663.22;5074129;28;20024;-70
2024/01/07 07:43:00;;;;;;;78.07;45.70;;;;;;;5.92;100.00;97649.00;5072925;28;20056;-71
2024/01/07 07:45:25;;;;;;;72.47;44.45;;;;;;;6.14;100.00;97666.31;5074424;28;20051;-71
2024/01/07 07:47:51;;;;;;;71.53;42.80;;;;;;;6.30;100.00;97661.69;5058466;28;20028;-69
2024/01/07 07:50:16;;;;;;;69.50;41.35;;;;;;;6.08;100.00;97651.09;5074176;28;20462;-69
2024/01/07 07:52:45;;;;;;;70.47;38.60;;;;;;;6.29;100.00;97660.06;5074318;28;20052;-67
2024/01/07 07:55:11;;;;;;;58.33;36.63;;;;;;;6.21;100.00;97649.91;5074078;28;20029;-69
2024/01/07 07:57:37;;;;;;;61.33;36.20;;;;;;;6.21;100.00;97647.13;5074290;28;20145;-69
2024/01/07 08:00:07;;;;;;;63.50;37.05;;;;;;;6.05;100.00;97647.03;5080098;28;20085;-69
2024/01/07 08:02:33;;;;;;;63.15;36.17;;;;;;;6.24;100.00;97646.41;5053111;28;20028;-69
2024/01/07 08:04:58;;;;;;;65.72;37.15;;;;;;;6.43;100.00;97654.09;5058313;28;20434;-67
2024/01/07 08:07:24;;;;;;;59.38;36.67;;;;;;;6.60;100.00;97650.22;5040221;28;20035;-73
2024/01/07 08:09:49;;;;;;;57.95;35.08;;;;;;;6.86;100.00;97631.50;5052487;28;20432;-68
2024/01/07 08:12:15;;;;;;;54.13;32.72;;;;;;;7.00;100.00;97633.88;5053200;28;20105;-69
2024/01/07 08:14:43;;;;;;;53.15;32.63;;;;;;;7.27;100.00;97621.03;5066846;28;20032;-67
2024/01/07 08:17:08;;;;;;;57.78;33.80;;;;;;;7.26;100.00;97619.44;5042109;28;20044;-68
2024/01/07 08:19:34;;;;;;;49.35;30.63;;;;;;;7.35;100.00;97632.34;5056457;28;20036;-68
2024/01/07 08:21:59;;;;;;;50.50;28.88;;;;;;;7.41;100.00;97626.16;5070733;28;20104;-67
2024/01/07 08:24:25;;;;;;;49.05;29.00;;;;;;;7.50;100.00;97637.09;5070232;28;20518;-69
2024/01/07 08:26:51;;;;;;;46.28;28.42;;;;;;;7.72;100.00;97635.69;5068618;28;20111;-68
2024/01/07 08:29:17;;;;;;;48.42;28.15;;;;;;;7.88;100.00;97640.41;5069943;28;20106;-68
2024/01/07 08:31:42;;;;;;;42.28;29.60;;;;;;;8.16;100.00;97642.22;5046757;28;20037;-68
2024/01/07 08:34:08;;;;;;;40.75;26.90;;;;;;;8.37;100.00;97638.28;5050503;28;20033;-67
2024/01/07 08:36:33;;;;;;;48.95;27.65;;;;;;;8.53;100.00;97635.47;5061823;28;20099;-69
2024/01/07 08:39:00;;;;;;;40.38;26.13;;;;;;;8.55;100.00;97645.06;5043898;28;20528;-68
2024/01/07 08:41:25;;;;;;;41.42;25.38;;;;;;;8.68;100.00;97642.94;5049436;28;20036;-68
2024/01/07 08:43:51;;;;;;;36.78;23.02;;;;;;;8.82;100.00;97639.66;5056773;28;20102;-68
2024/01/07 08:46:16;;;;;;;36.92;21.83;;;;;;;8.99;100.00;97637.56;5043368;28;20103;-70
2024/01/07 08:48:42;;;;;;;36.15;21.42;;;;;;;9.04;100.00;97631.69;5047925;28;20074;-68
2024/01/07 08:51:08;;;;;;;34.65;20.63;;;;;;;9.51;100.00;97631.69;5050049;28;20032;-67
2024/01/07 08:53:33;;;;;;;30.45;20.25;;;;;;;9.87;100.00;97620.31;5048397;28;20082;-67
2024/01/07 08:55:59;;;;;;;25.98;18.02;;;;;;;10.25;100.00;97616.47;5046398;28;20511;-67
2024/01/07 08:58:24;;;;;;;30.02;16.60;;;;;;;10.49;100.00;97614.41;5052824;28;20017;-69
2024/01/07 09:00:50;;;;;;;34.95;19.95;;;;;;;10.78;100.00;97613.94;5068525;28;20149;-75
2024/01/07 09:03:15;;;;;;;23.13;13.82;;;;;;;11.01;100.00;97605.44;5069751;28;20029;-69
2024/01/07 09:05:41;;;;;;;18.98;12.50;;;;;;;11.17;100.00;97594.00;5067434;28;20025;-69
2024/01/07 09:08:06;;;;;;;18.98;10.77;;;;;;;11.25;100.00;97597.69;5060439;28;20059;-68
2024/01/07 09:10:34;;;;;;;10.27;7.68;;;;;;;11.18;100.00;97600.41;5073935;28;20454;-68
2024/01/07 09:13:00;;;;;;;10.40;6.22;;;;;;;11.17;100.00;97605.19;5053781;28;20416;-69
2024/01/07 09:15:25;;;;;;;12.38;7.22;;;;;;;11.21;100.00;97602.41;5067418;28;20028;-68
2024/01/07 09:17:51;;;;;;;42.60;20.02;;;;;;;11.19;100.00;97593.59;5054698;28;20510;-68
2024/01/07 09:20:16;;;;;;;49.85;19.55;;;;;;;11.17;100.00;97582.81;5063415;28;20036;-67
2024/01/07 09:22:43;;;;;;;12.18;6.68;;;;;;;11.29;100.00;97589.31;5067070;28;20028;-69
2024/01/07 09:25:09;;;;;;;16.40;8.00;;;;;;;11.36;100.00;97590.19;5049788;28;20036;-69
2024/01/07 09:27:35;;;;;;;31.95;10.23;;;;;;;11.38;100.00;97596.19;5048946;28;20111;-69
2024/01/07 09:30:01;;;;;;;15.93;7.70;;;;;;;11.44;100.00;97595.81;5056715;28;20473;-68
2024/01/07 09:32:27;;;;;;;16.38;9.45;;;;;;;11.64;100.00;97599.19;5049802;28;20044;-70
2024/01/07 09:34:53;;;;;;;16.75;9.75;;;;;;;11.98;100.00;97603.84;5065484;28;20032;-71
2024/01/07 09:37:19;;;;;;;19.60;13.63;;;;;;;12.01;100.00;97603.88;5072220;28;20028;-70
2024/01/07 09:39:45;;;;;;;23.70;14.40;;;;;;;11.99;100.00;97594.25;5075997;28;20417;-71
2024/01/07 09:42:16;;;;;;;24.38;15.07;;;;;;;12.18;100.00;97596.78;5056438;28;20064;-70
2024/01/07 09:44:42;;;;;;;22.52;14.48;;;;;;;12.19;100.00;97592.00;5057168;28;20032;-70
2024/01/07 09:47:11;;;;;;;24.48;15.10;;;;;;;12.05;100.00;97573.91;5059105;28;20032;-70
2024/01/07 09:49:38;;;;;;;18.02;11.77;;;;;;;12.01;100.00;97589.88;5072070;28;20040;-69
2024/01/07 09:52:08;;;;;;;20.65;12.15;;;;;;;12.17;100.00;97583.97;5074351;28;20103;-69
2024/01/07 09:54:37;;;;;;;18.55;9.90;;;;;;;12.26;100.00;97583.63;5051492;28;20429;-70
2024/01/07 09:57:08;;;;;;;14.27;8.35;;;;;;;12.38;100.00;97582.47;5048550;28;20102;-70
2024/01/07 09:59:35;;;;;;;12.77;7.60;;;;;;;12.34;94.05;97581.66;5051785;28;20024;-70
2024/01/07 10:02:01;;;;;;;24.40;15.48;;;;;;;12.25;100.00;97576.41;5070462;28;20032;-70
2024/01/07 10:04:33;;;;;;;19.75;14.75;;;;;;;11.84;100.00;97577.34;5052912;28;20024;-69
2024/01/07 10:06:59;;;;;;;22.75;14.35;;;;;;;11.79;100.00;97561.72;5052274;28;20032;-69
2024/01/07 10:09:29;;;;;;;20.98;13.70;;;;;;;11.74;100.00;97552.88;5052478;28;20126;-70
2024/01/07 10:11:54;;;;;;;20.38;13.10;;;;;;;11.73;100.00;97554.06;5051180;28;20037;-69
2024/01/07 10:14:24;;;;;;;23.90;15.70;;;;;;;11.80;100.00;97548.50;5052826;28;20089;-68
2024/01/07 10:16:50;;;;;;;19.33;13.27;;;;;;;11.91;100.00;97534.56;5070676;28;20519;-69
2024/01/07 10:19:24;;;;;;;20.70;11.88;;;;;;;11.93;98.49;97546.19;5070770;28;20020;-69
2024/01/07 10:22:03;;;;;;;19.20;13.05;;;;;;;11.82;100.00;97546.09;5052982;28;20388;-69
2024/01/07 10:24:39;;;;;;;23.60;15.45;;;;;;;11.86;100.00;97544.16;5065705;28;20025;-69
2024/01/07 10:27:06;;;;;;;24.25;15.63;;;;;;;11.78;100.00;97531.28;5047750;28;20036;-68
2024/01/07 10:29:32;;;;;;;22.33;15.18;;;;;;;11.89;100.00;97529.34;5049897;28;20039;-69
2024/01/07 10:32:03;;;;;;;29.10;14.55;;;;;;;11.96;100.00;97525.00;5050957;28;20028;-69
2024/01/07 10:34:33;;;;;;;16.95;11.23;;;;;;;12.17;95.94;97516.69;5033201;28;20025;-69
2024/01/07 10:37:00;;;;;;;21.55;11.93;;;;;;;12.10;99.73;97527.06;5051165;28;20024;-69
2024/01/07 10:39:25;;;;;;;18.00;11.98;;;;;;;12.06;100.00;97532.66;5051082;28;20100;-69
2024/01/07 10:41:57;;;;;;;20.55;13.80;;;;;;;12.21;100.00;97527.94;5050992;28;20115;-69
2024/01/07 10:44:26;;;;;;;22.10;11.80;;;;;;;12.16;100.00;97531.91;5049195;28;20460;-69
2024/01/07 10:46:55;;;;;;;23.15;12.07;;;;;;;12.06;100.00;97516.66;5043016;28;20172;-69
2024/01/07 10:49:22;;;;;;;15.40;8.38;;;;;;;12.31;97.42;97515.97;5050859;28;20040;-69
2024/01/07 10:52:07;;;;;;;13.80;9.68;;;;;;;12.50;92.05;97506.41;5050895;28;20485;-69
2024/01/07 10:54:34;;;;;;;9.75;6.00;;;;;;;12.91;84.81;97512.91;5050777;28;20103;-69
2024/01/07 10:57:09;;;;;;;23.50;10.00;;;;;;;12.85;93.56;97497.69;5061245;28;20131;-68
2024/01/07 10:59:36;;;;;;;15.95;11.18;;;;;;;12.93;96.62;97518.94;5057089;28;20064;-69
2024/01/07 11:02:03;;;;;;;14.30;8.25;;;;;;;12.69;91.33;97500.84;5069331;28;20032;-69
2024/01/07 11:04:51;;;;;;;17.88;10.48;;;;;;;12.63;97.31;97492.03;5069472;28;20547;-69
2024/01/07 11:07:23;;;;;;;24.27;11.05;;;;;;;12.64;92.22;97483.22;5070764;28;20028;-69
2024/01/07 11:10:00;;;;;;;18.02;8.27;;;;;;;12.71;92.23;97476.81;5051994;28;20453;-69
2024/01/07 11:12:26;;;;;;;7.35;4.22;;;;;;;12.74;82.03;97467.59;5070664;28;20409;-70